Time;durP1;ratioP1;P1;durP2;ratioP2;P2;SDS_P1;SDS_P2;PMS_P1;PMS_P2;Temp;Humidity;BMP_temperature;BMP_pressure;BME280_temperature;BME280_humidity;BME280_pressure;Samples;Min_cycle;Max_cycle;Signal;HPM_P1;HPM_P2
2022/01/14 00:01:18;;;;;;;87.00;37.13;;;-6.80;96.00;;;;;;5036844;28;20108;-78
2022/01/14 00:03:44;;;;;;;101.75;39.67;;;-6.70;96.00;;;;;;5038522;28;20045;-78
2022/01/14 00:06:10;;;;;;;98.28;40.38;;;-3.40;96.90;;;;;;5029847;28;20606;-78
2022/01/14 00:08:36;;;;;;;90.93;38.15;;;-6.00;96.20;;;;;;5032180;28;20021;-78
2022/01/14 00:11:03;;;;;;;87.70;40.33;;;-6.90;96.00;;;;;;5048957;28;20652;-77
2022/01/14 00:16:15;;;;;;;107.88;42.88;;;-6.90;96.00;;;;;;5040904;28;20336;-78
2022/01/14 00:18:41;;;;;;;125.03;51.08;;;-7.00;96.20;;;;;;5041054;28;20024;-77
2022/01/14 00:21:06;;;;;;;123.80;48.90;;;-7.00;96.40;;;;;;5040956;28;20321;-78
2022/01/14 00:23:37;;;;;;;114.68;46.60;;;-7.00;96.20;;;;;;5040073;28;20297;-77
2022/01/14 00:31:42;;;;;;;97.57;42.40;;;-7.00;96.20;;;;;;5039728;28;20076;-78
2022/01/14 00:34:09;;;;;;;98.30;40.42;;;-7.00;96.10;;;;;;5040217;28;20024;-78
2022/01/14 00:36:34;;;;;;;94.20;39.58;;;-6.80;96.20;;;;;;5040728;28;20033;-78
2022/01/14 00:39:03;;;;;;;75.00;34.20;;;-6.90;96.50;;;;;;5040219;28;20106;-77
2022/01/14 00:41:28;;;;;;;80.47;34.88;;;-5.40;96.80;;;;;;5040069;28;20021;-78
2022/01/14 00:44:01;;;;;;;86.68;34.75;;;-4.70;96.90;;;;;;5040355;28;20276;-78
2022/01/14 00:46:27;;;;;;;75.78;34.55;;;-6.80;96.30;;;;;;5038651;28;20044;-77
2022/01/14 00:48:56;;;;;;;90.10;35.63;;;-6.80;96.40;;;;;;5040358;28;20025;-77
2022/01/14 00:51:22;;;;;;;73.50;32.83;;;-6.80;96.40;;;;;;5037844;28;20098;-78
2022/01/14 00:53:48;;;;;;;77.80;32.80;;;-6.80;96.40;;;;;;5039734;28;20017;-78
2022/01/14 01:01:38;;;;;;;55.50;24.87;;;-4.80;96.60;;;;;;5039892;28;20141;-78
2022/01/14 01:04:04;;;;;;;68.15;30.35;;;-4.90;96.30;;;;;;5039661;28;20341;-78
2022/01/14 01:06:33;;;;;;;66.45;31.02;;;-6.70;95.90;;;;;;5039647;28;20262;-78
2022/01/14 01:08:59;;;;;;;66.03;31.73;;;-5.70;96.20;;;;;;5039751;28;20024;-77
2022/01/14 01:11:34;;;;;;;72.97;32.80;;;-6.70;96.10;;;;;;5038728;28;20037;-78
2022/01/14 01:14:11;;;;;;;79.68;33.90;;;-6.60;96.10;;;;;;5039422;28;20171;-78
2022/01/14 01:16:42;;;;;;;72.35;32.70;;;-6.00;96.30;;;;;;5039847;28;20070;-78
2022/01/14 01:19:09;;;;;;;80.60;35.78;;;-6.40;96.40;;;;;;5039873;28;20332;-78
2022/01/14 01:21:35;;;;;;;88.85;35.97;;;-6.30;96.40;;;;;;5039645;28;20447;-78
2022/01/14 01:24:04;;;;;;;77.38;34.33;;;-5.00;96.50;;;;;;5037332;28;20028;-78
2022/01/14 01:26:34;;;;;;;74.35;33.40;;;-6.10;96.10;;;;;;5037748;28;20106;-78
2022/01/14 01:29:53;;;;;;;73.38;31.77;;;-6.10;95.70;;;;;;5037657;28;20036;-77
2022/01/14 01:31:51;;;;;;;80.80;35.20;;;-6.00;95.60;;;;;;5037912;28;20037;-78
2022/01/14 01:34:27;;;;;;;93.75;42.10;;;-6.00;95.50;;;;;;5039062;28;20063;-78
2022/01/14 01:36:55;;;;;;;82.15;36.40;;;-5.90;95.50;;;;;;5038748;28;20213;-78
2022/01/14 01:39:28;;;;;;;84.22;36.95;;;-5.80;95.20;;;;;;5038663;28;20593;-78
2022/01/14 01:41:57;;;;;;;82.22;34.60;;;-5.90;95.30;;;;;;5038844;28;20045;-78
2022/01/14 01:44:24;;;;;;;73.63;33.15;;;-5.90;95.10;;;;;;5038888;28;20068;-78
2022/01/14 01:46:51;;;;;;;88.82;36.45;;;-3.70;95.60;;;;;;5038447;28;20029;-78
2022/01/14 01:49:27;;;;;;;82.25;37.22;;;-5.40;95.10;;;;;;5039056;28;20021;-78
2022/01/14 01:51:53;;;;;;;90.43;38.90;;;-5.50;95.30;;;;;;5039106;28;20052;-78
2022/01/14 01:54:21;;;;;;;96.07;40.83;;;-5.10;95.50;;;;;;5038914;28;20029;-78
2022/01/14 01:56:49;;;;;;;90.30;39.85;;;-5.70;95.50;;;;;;5039094;28;20028;-77
2022/01/14 01:59:21;;;;;;;96.72;40.40;;;-4.30;95.80;;;;;;5037471;28;20412;-79
2022/01/14 02:01:48;;;;;;;95.20;40.97;;;-7.70;94.90;;;;;;5038557;28;20523;-78
2022/01/14 02:04:13;;;;;;;93.53;41.33;;;-5.50;95.30;;;;;;5038716;28;20541;-78
2022/01/14 02:06:47;;;;;;;97.10;42.00;;;-4.60;95.20;;;;;;5036620;28;20036;-79
2022/01/14 02:09:13;;;;;;;105.28;44.33;;;-5.40;94.90;;;;;;5038132;28;20048;-78
2022/01/14 02:11:40;;;;;;;105.05;43.70;;;-5.30;94.70;;;;;;5038396;28;20451;-78
2022/01/14 02:14:25;;;;;;;99.22;44.42;;;-5.40;94.40;;;;;;5038313;28;20502;-78
2022/01/14 02:22:53;;;;;;;99.25;42.53;;;-5.20;94.70;;;;;;5035339;28;20558;-78
2022/01/14 02:25:28;;;;;;;100.97;42.58;;;-5.20;94.70;;;;;;5034873;28;20488;-78
2022/01/14 02:28:07;;;;;;;96.38;42.35;;;-5.10;94.70;;;;;;5035153;28;20028;-78
2022/01/14 02:30:47;;;;;;;95.15;40.42;;;-5.00;94.50;;;;;;5035354;28;20207;-78
2022/01/14 02:33:19;;;;;;;92.93;38.88;;;-4.90;94.50;;;;;;5035052;28;20060;-78
2022/01/14 02:35:49;;;;;;;71.65;33.72;;;-5.00;94.10;;;;;;5017723;28;20279;-76
2022/01/14 02:38:18;;;;;;;80.18;35.38;;;-4.90;93.90;;;;;;5018276;28;20025;-79
2022/01/14 02:40:46;;;;;;;76.55;35.08;;;-4.90;93.40;;;;;;5018163;28;20098;-78
2022/01/14 02:43:16;;;;;;;73.25;33.60;;;-5.00;93.40;;;;;;5018712;28;20180;-77
2022/01/14 02:45:47;;;;;;;81.18;34.55;;;-5.10;93.30;;;;;;5044464;28;20074;-78
2022/01/14 02:48:16;;;;;;;80.00;35.47;;;-4.10;93.80;;;;;;5049031;28;20060;-78
2022/01/14 02:50:53;;;;;;;78.82;35.33;;;-5.10;93.70;;;;;;5052382;28;20148;-77
2022/01/14 02:53:41;;;;;;;70.70;31.63;;;-5.10;94.00;;;;;;5029534;28;20258;-78
2022/01/14 02:56:19;;;;;;;73.35;32.55;;;-5.10;94.10;;;;;;5024796;28;20122;-78
2022/01/14 02:58:47;;;;;;;67.28;29.65;;;-5.20;94.40;;;;;;5039844;28;20025;-78
2022/01/14 03:01:24;;;;;;;67.03;28.15;;;-5.10;93.70;;;;;;5038356;28;20490;-77
2022/01/14 03:03:55;;;;;;;67.38;29.55;;;-5.00;93.80;;;;;;5037001;28;20284;-78
2022/01/14 03:06:24;;;;;;;62.40;27.85;;;-5.20;94.10;;;;;;5037727;28;20029;-78
2022/01/14 03:08:53;;;;;;;58.15;26.38;;;-5.20;94.10;;;;;;5038309;28;20021;-78
2022/01/14 03:11:34;;;;;;;67.75;28.10;;;-4.30;94.40;;;;;;5037721;28;20032;-78
2022/01/14 03:14:01;;;;;;;61.15;28.02;;;-5.10;94.30;;;;;;5036269;28;20029;-78
2022/01/14 03:16:37;;;;;;;73.28;30.80;;;-5.10;94.30;;;;;;5037720;28;20499;-78
2022/01/14 03:19:11;;;;;;;70.18;30.23;;;-5.00;94.60;;;;;;5037689;28;20066;-78
2022/01/14 03:21:40;;;;;;;66.40;29.83;;;-5.00;95.00;;;;;;5037628;28;20024;-78
2022/01/14 03:27:00;;;;;;;68.28;30.42;;;-5.00;94.30;;;;;;5028644;28;20041;-77
2022/01/14 03:29:25;;;;;;;70.80;30.63;;;-3.90;94.60;;;;;;5036659;28;20590;-78
2022/01/14 03:31:51;;;;;;;69.65;30.27;;;-4.40;94.50;;;;;;5037896;28;20583;-78
2022/01/14 03:34:17;;;;;;;66.47;29.48;;;-4.10;94.70;;;;;;5038100;28;20446;-78
2022/01/14 03:36:42;;;;;;;64.05;26.70;;;-4.30;94.50;;;;;;5037538;28;20017;-78
2022/01/14 03:39:17;;;;;;;68.80;28.73;;;-3.00;94.60;;;;;;5035673;28;20033;-78
2022/01/14 03:41:43;;;;;;;69.75;29.77;;;-4.60;94.10;;;;;;5037876;28;20051;-78
2022/01/14 03:44:09;;;;;;;73.93;30.55;;;-3.30;94.60;;;;;;5037783;28;20364;-78
2022/01/14 03:46:35;;;;;;;74.50;31.15;;;-4.50;94.50;;;;;;5038362;28;20060;-78
2022/01/14 03:49:01;;;;;;;71.97;32.88;;;-4.60;94.40;;;;;;5041653;28;20494;-79
2022/01/14 03:51:28;;;;;;;64.00;28.77;;;-4.60;94.50;;;;;;5041330;28;20028;-78
2022/01/14 03:53:59;;;;;;;63.67;30.27;;;-4.60;94.10;;;;;;5039857;28;20033;-78
2022/01/14 03:56:26;;;;;;;59.47;28.83;;;-4.60;94.10;;;;;;5041021;28;20025;-78
2022/01/14 03:58:55;;;;;;;66.22;31.38;;;-4.50;94.40;;;;;;5041442;28;20032;-78
2022/01/14 04:01:21;;;;;;;68.03;31.42;;;-4.50;94.10;;;;;;5040139;28;20217;-78
2022/01/14 04:03:48;;;;;;;66.53;31.20;;;-4.40;93.90;;;;;;5040997;28;20052;-78
2022/01/14 04:06:15;;;;;;;76.43;33.28;;;-4.00;94.00;;;;;;5041089;28;20061;-77
2022/01/14 04:08:41;;;;;;;77.10;33.53;;;-2.00;94.30;;;;;;5040927;28;20082;-78
2022/01/14 04:11:09;;;;;;;75.50;34.42;;;-1.90;94.50;;;;;;5040733;28;20036;-78
2022/01/14 04:14:06;;;;;;;81.82;34.42;;;-4.30;93.90;;;;;;5040504;28;20029;-78
2022/01/14 04:16:23;;;;;;;76.68;35.88;;;-4.40;94.30;;;;;;5040510;28;20029;-78
2022/01/14 04:18:50;;;;;;;80.28;35.63;;;-4.40;94.40;;;;;;5039510;28;20292;-78
2022/01/14 04:21:16;;;;;;;73.55;34.33;;;-3.80;94.60;;;;;;5040794;28;20471;-78
2022/01/14 04:23:42;;;;;;;80.20;34.75;;;-4.40;94.20;;;;;;5040341;28;20029;-78
2022/01/14 04:26:08;;;;;;;75.43;34.38;;;-4.30;94.30;;;;;;5040361;28;20218;-78
2022/01/14 04:28:35;;;;;;;82.05;35.47;;;-3.70;94.50;;;;;;5040474;28;20021;-78
2022/01/14 04:31:01;;;;;;;73.20;32.78;;;-4.30;94.40;;;;;;5039157;28;20357;-78
2022/01/14 04:33:29;;;;;;;74.68;34.58;;;-4.30;94.10;;;;;;5039128;28;20112;-78
2022/01/14 04:36:01;;;;;;;86.65;35.13;;;-4.30;94.20;;;;;;5040214;28;20033;-79
2022/01/14 04:38:29;;;;;;;82.07;36.17;;;-4.00;94.30;;;;;;5046172;28;20025;-78
2022/01/14 04:40:55;;;;;;;76.80;35.92;;;-2.10;94.70;;;;;;5048670;28;20138;-76
2022/01/14 04:43:21;;;;;;;95.03;43.45;;;-2.90;94.50;;;;;;5052265;28;20032;-79
2022/01/14 04:48:23;;;;;;;114.70;51.55;;;-4.20;94.80;;;;;;5042684;28;20025;-78
2022/01/14 04:50:53;;;;;;;114.05;49.70;;;-4.30;94.70;;;;;;5041530;28;20188;-78
2022/01/14 04:53:20;;;;;;;108.65;50.17;;;-4.30;94.80;;;;;;5041970;28;20207;-78
2022/01/14 04:55:46;;;;;;;118.13;50.75;;;-4.30;95.00;;;;;;5041875;28;20032;-77
2022/01/14 04:58:16;;;;;;;123.10;54.00;;;-3.40;95.20;;;;;;5039888;28;20040;-78
2022/01/14 05:00:42;;;;;;;131.82;54.60;;;-3.70;95.50;;;;;;5039433;28;20029;-78
2022/01/14 05:03:09;;;;;;;117.43;53.22;;;-4.50;95.30;;;;;;5040724;28;20049;-78
2022/01/14 05:05:39;;;;;;;130.15;56.28;;;-3.30;95.90;;;;;;5040053;28;20079;-79
2022/01/14 05:08:09;;;;;;;129.77;56.42;;;-4.60;95.70;;;;;;5038556;28;20229;-77
2022/01/14 05:10:48;;;;;;;122.43;55.00;;;-4.10;96.10;;;;;;5038392;28;20028;-78
2022/01/14 05:13:14;;;;;;;130.90;56.75;;;-4.60;95.90;;;;;;5038453;28;20032;-77
2022/01/14 05:15:42;;;;;;;126.60;54.90;;;-3.90;96.20;;;;;;5039899;28;20229;-79
2022/01/14 05:18:08;;;;;;;126.88;56.97;;;-3.90;96.30;;;;;;5039375;28;20028;-78
2022/01/14 05:20:34;;;;;;;130.65;56.63;;;-4.70;96.10;;;;;;5039284;28;20021;-77
2022/01/14 05:22:59;;;;;;;133.35;58.53;;;-3.70;96.40;;;;;;5039336;28;20074;-79
2022/01/14 05:25:28;;;;;;;126.82;55.42;;;-4.70;96.30;;;;;;5039161;28;20029;-78
2022/01/14 05:27:54;;;;;;;126.32;55.63;;;-4.50;96.30;;;;;;5039398;28;20044;-78
2022/01/14 05:30:20;;;;;;;135.07;58.05;;;-3.10;96.60;;;;;;5037867;28;20021;-78
2022/01/14 05:32:51;;;;;;;136.43;59.17;;;-4.60;96.30;;;;;;5039259;28;20464;-78
2022/01/14 05:35:23;;;;;;;140.23;60.35;;;-3.80;96.40;;;;;;5039179;28;20221;-78
2022/01/14 05:37:49;;;;;;;134.40;59.05;;;-2.10;96.90;;;;;;5037789;28;20078;-78
2022/01/14 05:40:16;;;;;;;142.85;61.92;;;-4.60;96.30;;;;;;5039058;28;20029;-78
2022/01/14 05:42:43;;;;;;;137.02;59.35;;;-4.60;96.30;;;;;;5038727;28;20020;-79
2022/01/14 05:45:16;;;;;;;141.07;61.42;;;-4.50;96.20;;;;;;5038326;28;20025;-78
2022/01/14 05:47:42;;;;;;;131.13;59.83;;;-4.50;96.30;;;;;;5038921;28;20627;-78
2022/01/14 05:50:12;;;;;;;133.88;60.85;;;-2.40;96.90;;;;;;5038606;28;20401;-78
2022/01/14 05:52:38;;;;;;;136.43;60.15;;;-4.10;96.40;;;;;;5038688;28;20289;-79
2022/01/14 05:55:06;;;;;;;134.32;60.40;;;-4.40;96.40;;;;;;5038847;28;20560;-79
2022/01/14 05:57:34;;;;;;;128.88;58.00;;;-4.50;96.30;;;;;;5038786;28;20039;-78
2022/01/14 06:00:04;;;;;;;144.70;59.95;;;-2.00;97.00;;;;;;5038673;28;20028;-78
2022/01/14 06:02:32;;;;;;;135.95;60.95;;;-3.80;96.60;;;;;;5038212;28;20033;-78
2022/01/14 06:04:58;;;;;;;137.40;59.75;;;-4.50;96.40;;;;;;5038641;28;20025;-79
2022/01/14 06:07:24;;;;;;;140.65;59.72;;;-4.20;96.50;;;;;;5038422;28;20376;-77
2022/01/14 06:09:49;;;;;;;129.98;60.72;;;-4.00;96.60;;;;;;5038004;28;20074;-78
2022/01/14 06:12:18;;;;;;;139.45;60.65;;;-4.40;96.40;;;;;;5036885;28;20037;-78
2022/01/14 06:14:44;;;;;;;133.32;59.53;;;-4.40;96.30;;;;;;5038338;28;20411;-78
2022/01/14 06:17:11;;;;;;;135.85;59.72;;;-4.30;96.40;;;;;;5038582;28;20017;-78
2022/01/14 06:19:37;;;;;;;126.43;56.05;;;-4.30;96.20;;;;;;5038630;28;20028;-77
2022/01/14 06:22:03;;;;;;;131.82;57.20;;;-4.40;96.30;;;;;;5037971;28;20375;-78
2022/01/14 06:24:29;;;;;;;124.80;57.03;;;-4.40;96.30;;;;;;5036965;28;20325;-78
2022/01/14 06:26:55;;;;;;;125.25;57.13;;;-4.40;96.40;;;;;;5036687;28;20531;-78
2022/01/14 06:29:22;;;;;;;125.55;58.55;;;-4.40;96.40;;;;;;5038162;28;20662;-78
2022/01/14 06:31:48;;;;;;;128.10;56.60;;;-4.40;96.30;;;;;;5038331;28;20017;-78
2022/01/14 06:34:14;;;;;;;124.55;57.10;;;-4.30;96.30;;;;;;5036877;28;20021;-78
2022/01/14 06:36:41;;;;;;;135.25;58.50;;;-4.20;96.30;;;;;;5037973;28;20032;-78
2022/01/14 06:39:08;;;;;;;128.23;58.45;;;-4.10;96.30;;;;;;5036490;28;20029;-78
2022/01/14 06:41:34;;;;;;;137.35;59.35;;;-4.00;96.10;;;;;;5037719;28;20021;-78
2022/01/14 06:44:00;;;;;;;131.02;56.97;;;-4.10;95.90;;;;;;5037761;28;20025;-78
2022/01/14 06:46:25;;;;;;;135.38;58.90;;;-4.00;95.80;;;;;;5037623;28;20355;-79
2022/01/14 06:48:51;;;;;;;126.57;56.80;;;-3.40;95.90;;;;;;5037299;28;20506;-78
2022/01/14 06:51:17;;;;;;;121.28;56.80;;;-2.50;96.10;;;;;;5037464;28;20298;-78
2022/01/14 06:53:43;;;;;;;132.10;59.22;;;-2.80;95.70;;;;;;5037446;28;20353;-78
2022/01/14 06:56:11;;;;;;;135.27;59.40;;;-4.20;95.60;;;;;;5036166;28;20347;-78
2022/01/14 06:58:37;;;;;;;127.90;56.50;;;-3.00;95.90;;;;;;5037727;28;20028;-78
2022/01/14 07:01:04;;;;;;;128.27;57.30;;;-3.80;95.40;;;;;;5037606;28;20021;-78
2022/01/14 07:03:29;;;;;;;133.13;56.97;;;-3.80;95.30;;;;;;5037507;28;20056;-78
2022/01/14 07:06:01;;;;;;;124.18;58.28;;;-2.60;95.60;;;;;;5036236;28;20037;-77
2022/01/14 07:08:29;;;;;;;125.53;58.85;;;-3.60;95.30;;;;;;5037708;28;20021;-78
2022/01/14 07:10:55;;;;;;;129.65;57.38;;;-3.60;94.90;;;;;;5037569;28;20292;-78
2022/01/14 07:13:21;;;;;;;126.18;54.97;;;-3.50;95.20;;;;;;5037704;28;20029;-78
2022/01/14 07:15:47;;;;;;;126.25;56.50;;;-3.30;94.90;;;;;;5037442;28;20178;-78
2022/01/14 07:18:16;;;;;;;128.70;57.10;;;-3.40;94.90;;;;;;5036274;28;20039;-79
2022/01/14 07:20:42;;;;;;;135.13;61.17;;;-3.30;94.90;;;;;;5037673;28;20332;-79
2022/01/14 07:23:07;;;;;;;136.68;62.55;;;-3.00;94.50;;;;;;5040632;28;20128;-78
2022/01/14 07:25:33;;;;;;;137.57;63.05;;;-3.10;94.30;;;;;;5041371;28;20155;-78
2022/01/14 07:27:59;;;;;;;132.25;58.45;;;-3.00;94.10;;;;;;5039080;28;20139;-78
2022/01/14 07:30:28;;;;;;;122.68;56.70;;;-3.00;93.90;;;;;;5041471;28;20040;-78
2022/01/14 07:32:53;;;;;;;120.60;56.17;;;-3.10;93.60;;;;;;5039866;28;20458;-79
2022/01/14 07:35:26;;;;;;;132.43;57.72;;;-2.20;93.80;;;;;;5040211;28;20079;-78
2022/01/14 07:37:54;;;;;;;137.82;60.83;;;-2.70;93.90;;;;;;5040073;28;20033;-78
2022/01/14 07:40:28;;;;;;;135.98;61.08;;;-1.60;94.00;;;;;;5041601;28;20518;-78
2022/01/14 07:42:56;;;;;;;132.52;59.25;;;-2.80;93.50;;;;;;5040347;28;20044;-78
2022/01/14 07:45:22;;;;;;;132.43;61.03;;;-2.70;93.70;;;;;;5041223;28;20075;-78
2022/01/14 07:47:48;;;;;;;136.20;62.95;;;-2.60;93.30;;;;;;5040601;28;20072;-79
2022/01/14 07:50:24;;;;;;;134.30;63.88;;;-2.60;93.20;;;;;;5041572;28;20032;-78
2022/01/14 07:53:16;;;;;;;137.18;63.55;;;-2.70;93.30;;;;;;5041125;28;20017;-77
2022/01/14 07:55:42;;;;;;;137.25;66.05;;;-2.50;93.60;;;;;;5040521;28;20022;-78
2022/01/14 07:58:10;;;;;;;150.35;67.35;;;-2.30;93.60;;;;;;5040738;28;20119;-78
2022/01/14 08:00:37;;;;;;;147.98;68.57;;;-2.70;93.50;;;;;;5040731;28;20082;-78
2022/01/14 08:03:03;;;;;;;161.63;73.18;;;-2.70;93.50;;;;;;5040644;28;20049;-78
2022/01/14 08:05:29;;;;;;;147.63;70.07;;;-2.70;93.60;;;;;;5040537;28;20021;-78
2022/01/14 08:07:57;;;;;;;166.00;75.45;;;-1.70;93.70;;;;;;5041284;28;20025;-78
2022/01/14 08:10:24;;;;;;;160.07;73.05;;;-2.50;93.40;;;;;;5042598;28;20541;-78
2022/01/14 08:12:49;;;;;;;161.82;75.10;;;-2.50;93.20;;;;;;5041550;28;20464;-77
2022/01/14 08:15:15;;;;;;;151.95;71.10;;;-2.50;93.10;;;;;;5041526;28;20029;-78
2022/01/14 08:17:44;;;;;;;164.70;76.65;;;-2.40;93.00;;;;;;5040579;28;20516;-78
2022/01/14 08:20:10;;;;;;;172.80;80.28;;;-2.50;93.20;;;;;;5039037;28;20036;-78
2022/01/14 08:22:36;;;;;;;177.73;81.95;;;-2.40;92.80;;;;;;5039226;28;20511;-78
2022/01/14 08:25:03;;;;;;;167.27;81.03;;;-2.40;92.70;;;;;;5040192;28;20017;-78
2022/01/14 08:27:28;;;;;;;182.13;83.25;;;-2.40;92.50;;;;;;5040456;28;20120;-78
2022/01/14 08:29:57;;;;;;;183.30;86.88;;;-2.30;92.50;;;;;;5040361;28;20389;-78
2022/01/14 08:32:26;;;;;;;193.50;88.60;;;-2.30;92.60;;;;;;5039877;28;20297;-78
2022/01/14 08:34:52;;;;;;;198.65;85.90;;;-2.20;92.80;;;;;;5040004;28;20430;-79
2022/01/14 08:37:18;;;;;;;195.27;88.45;;;-2.30;92.50;;;;;;5039941;28;20025;-77
2022/01/14 08:39:46;;;;;;;182.48;86.45;;;-2.30;92.30;;;;;;5038632;28;20021;-80
2022/01/14 08:42:13;;;;;;;187.10;90.93;;;-2.20;92.40;;;;;;5039916;28;20320;-79
2022/01/14 08:44:42;;;;;;;184.38;86.15;;;-2.10;92.40;;;;;;5039890;28;20112;-79
2022/01/14 08:47:09;;;;;;;199.77;92.82;;;-1.90;92.00;;;;;;5038377;28;20090;-79
2022/01/14 08:49:37;;;;;;;183.10;87.50;;;-1.60;91.40;;;;;;5038524;28;20017;-79
2022/01/14 08:52:07;;;;;;;182.80;86.63;;;-1.40;91.10;;;;;;5038821;28;20384;-78
2022/01/14 08:54:34;;;;;;;195.13;87.20;;;-1.20;90.70;;;;;;5040048;28;20082;-78
2022/01/14 08:57:02;;;;;;;180.50;88.13;;;-0.90;90.10;;;;;;5038175;28;20301;-79
2022/01/14 08:59:28;;;;;;;168.85;82.30;;;-0.80;89.40;;;;;;5040127;28;20025;-78
2022/01/14 09:01:54;;;;;;;184.13;88.32;;;-0.80;89.30;;;;;;5039655;28;20048;-78
2022/01/14 09:04:20;;;;;;;185.77;87.70;;;-0.70;89.30;;;;;;5039962;28;20306;-78
2022/01/14 09:06:46;;;;;;;277.75;114.93;;;-0.50;88.80;;;;;;5039801;28;20150;-78
2022/01/14 09:09:12;;;;;;;226.43;99.63;;;-0.30;87.40;;;;;;5039696;28;20025;-78
2022/01/14 09:11:38;;;;;;;194.45;90.72;;;-0.20;86.30;;;;;;5039609;28;20028;-78
2022/01/14 09:14:04;;;;;;;184.55;88.90;;;-0.20;86.10;;;;;;5039489;28;20560;-77
2022/01/14 09:16:32;;;;;;;180.82;85.47;;;0.00;85.30;;;;;;5039524;28;20029;-79
2022/01/14 09:19:01;;;;;;;172.95;81.47;;;0.10;85.60;;;;;;5039168;28;20021;-78
2022/01/14 09:21:26;;;;;;;179.35;85.82;;;0.10;84.90;;;;;;5039349;28;20029;-78
2022/01/14 09:24:03;;;;;;;177.88;84.22;;;0.10;83.60;;;;;;5039431;28;20040;-78
2022/01/14 09:26:29;;;;;;;;;;;0.10;84.30;;;;;;5022615;28;20076;-78
2022/01/14 09:28:55;;;;;;;169.68;80.13;;;0.10;83.00;;;;;;5039205;28;20572;-78
2022/01/14 09:31:23;;;;;;;164.23;82.47;;;0.10;83.70;;;;;;5038916;28;20070;-77
2022/01/14 09:33:49;;;;;;;170.13;79.65;;;0.20;83.50;;;;;;5038908;28;20052;-78
2022/01/14 09:36:17;;;;;;;174.35;83.13;;;0.30;83.80;;;;;;5038873;28;20064;-78
2022/01/14 09:38:47;;;;;;;177.07;84.00;;;1.60;83.40;;;;;;5038899;28;20075;-79
2022/01/14 09:41:18;;;;;;;166.38;82.10;;;0.50;82.10;;;;;;5037576;28;20033;-79
2022/01/14 09:43:45;;;;;;;169.25;81.75;;;0.50;82.00;;;;;;5038949;28;20190;-79
2022/01/14 09:46:12;;;;;;;160.07;79.80;;;0.70;81.80;;;;;;5038272;28;20523;-78
2022/01/14 09:48:39;;;;;;;159.40;78.28;;;0.70;81.80;;;;;;5038567;28;20021;-79
2022/01/14 09:51:05;;;;;;;165.65;81.90;;;1.00;81.70;;;;;;5038303;28;20057;-79
2022/01/14 09:53:32;;;;;;;162.55;80.15;;;3.00;81.10;;;;;;5038821;28;20108;-79
2022/01/14 09:55:59;;;;;;;167.57;80.85;;;1.10;79.90;;;;;;5038473;28;20037;-79
2022/01/14 09:58:27;;;;;;;169.82;83.07;;;0.90;79.80;;;;;;5038557;28;20369;-78
2022/01/14 10:01:10;;;;;;;160.15;80.00;;;1.20;80.10;;;;;;5038206;28;20573;-78
2022/01/14 10:04:07;;;;;;;160.60;78.93;;;1.10;79.50;;;;;;5038391;28;20152;-79
2022/01/14 10:06:46;;;;;;;167.60;82.00;;;1.10;80.00;;;;;;5037938;28;20041;-78
2022/01/14 10:09:17;;;;;;;210.65;92.07;;;1.30;79.10;;;;;;5037177;28;20033;-78
2022/01/14 10:12:11;;;;;;;163.55;77.63;;;1.60;78.10;;;;;;5037160;28;20400;-79
2022/01/14 10:14:43;;;;;;;177.70;80.95;;;1.40;77.40;;;;;;5037204;28;20024;-79
2022/01/14 10:17:10;;;;;;;163.80;78.90;;;1.80;77.90;;;;;;5038680;28;20028;-78
2022/01/14 10:19:42;;;;;;;168.95;80.43;;;2.00;77.00;;;;;;5038750;28;20108;-79
2022/01/14 10:22:30;;;;;;;173.65;86.75;;;2.30;75.80;;;;;;5038702;28;20178;-78
2022/01/14 10:24:57;;;;;;;172.00;84.05;;;2.50;74.60;;;;;;5038365;28;20025;-79
2022/01/14 10:27:56;;;;;;;158.38;79.63;;;2.40;72.90;;;;;;5037400;28;20660;-78
2022/01/14 10:30:31;;;;;;;175.93;84.00;;;2.70;72.50;;;;;;5018580;28;20133;-79
2022/01/14 10:33:07;;;;;;;158.07;77.57;;;3.00;71.70;;;;;;5035762;28;20029;-78
2022/01/14 10:35:45;;;;;;;158.25;80.32;;;3.10;71.10;;;;;;5035805;28;20302;-78
2022/01/14 10:38:15;;;;;;;175.85;84.93;;;3.30;70.80;;;;;;5036070;28;20025;-79
2022/01/14 10:40:52;;;;;;;160.98;81.88;;;3.40;69.10;;;;;;5036481;28;20439;-78
2022/01/14 10:43:23;;;;;;;170.05;84.53;;;3.60;69.30;;;;;;5033902;28;20104;-78
2022/01/14 10:45:50;;;;;;;164.55;81.50;;;3.80;68.80;;;;;;5036962;28;20076;-78
2022/01/14 10:48:36;;;;;;;169.13;83.30;;;3.80;68.50;;;;;;5038291;28;20562;-79
2022/01/14 10:51:06;;;;;;;157.13;78.07;;;3.80;68.70;;;;;;4985229;28;20057;-78
2022/01/14 10:53:53;;;;;;;171.32;87.43;;;3.00;67.50;;;;;;4985551;28;20054;-79
2022/01/14 10:56:27;;;;;;;161.95;84.15;;;4.10;67.60;;;;;;4985901;28;20039;-79
2022/01/14 10:58:58;;;;;;;169.60;85.75;;;4.30;68.80;;;;;;4984650;28;20305;-79
2022/01/14 11:01:25;;;;;;;172.52;87.40;;;4.00;68.00;;;;;;4983922;28;20081;-78
2022/01/14 11:04:10;;;;;;;171.65;89.38;;;4.20;67.20;;;;;;4949197;28;20062;-78
2022/01/14 11:06:40;;;;;;;177.43;87.45;;;4.40;65.60;;;;;;4996640;28;20038;-78
2022/01/14 11:09:08;;;;;;;170.05;87.38;;;4.30;66.70;;;;;;5001057;28;20311;-78
2022/01/14 11:11:39;;;;;;;176.98;87.63;;;4.50;66.70;;;;;;5000583;28;20317;-78
2022/01/14 11:14:08;;;;;;;185.73;96.75;;;4.70;66.60;;;;;;4999700;28;20034;-78
2022/01/14 11:16:35;;;;;;;179.27;86.93;;;4.80;68.20;;;;;;4984307;28;20124;-78
2022/01/14 11:19:02;;;;;;;153.73;84.47;;;4.80;67.80;;;;;;4984099;28;20022;-79
2022/01/14 11:24:28;;;;;;;167.07;84.13;;;4.80;65.10;;;;;;5006588;28;20037;-78
2022/01/14 11:27:00;;;;;;;154.23;79.95;;;5.00;63.90;;;;;;5006594;28;20837;-78
2022/01/14 11:29:34;;;;;;;165.15;81.85;;;5.10;64.70;;;;;;5047784;28;20341;-78
2022/01/14 11:32:03;;;;;;;172.38;88.32;;;5.20;64.70;;;;;;5043584;28;20649;-78
2022/01/14 11:34:36;;;;;;;178.45;91.05;;;5.40;65.40;;;;;;5040259;28;20037;-79
2022/01/14 11:37:05;;;;;;;171.43;89.15;;;5.40;64.90;;;;;;5039929;28;20282;-78
2022/01/14 11:39:38;;;;;;;174.00;89.90;;;5.50;62.50;;;;;;5039712;28;20116;-77
2022/01/14 11:42:08;;;;;;;181.40;89.72;;;5.50;63.00;;;;;;5039453;28;20482;-77
2022/01/14 11:44:52;;;;;;;173.02;89.15;;;5.60;62.60;;;;;;5039690;28;20056;-78
2022/01/14 11:47:24;;;;;;;181.45;97.15;;;5.50;63.00;;;;;;5040818;28;20068;-77
2022/01/14 11:49:53;;;;;;;184.32;95.30;;;5.50;62.60;;;;;;5041151;28;20021;-78
2022/01/14 11:52:52;;;;;;;191.70;97.68;;;5.40;62.80;;;;;;5039394;28;20033;-77
2022/01/14 11:55:34;;;;;;;186.40;97.65;;;5.50;65.10;;;;;;5038560;28;20052;-78
2022/01/14 11:58:05;;;;;;;183.82;97.65;;;5.60;65.50;;;;;;5039053;28;20524;-77
2022/01/14 12:00:37;;;;;;;182.73;97.20;;;5.60;64.70;;;;;;5038355;28;20063;-78
2022/01/14 12:03:15;;;;;;;202.70;104.13;;;5.40;65.50;;;;;;5039654;28;20044;-77
2022/01/14 12:05:50;;;;;;;197.63;102.93;;;5.60;66.60;;;;;;5041072;28;20420;-77
2022/01/14 12:08:19;;;;;;;195.40;102.07;;;5.20;65.10;;;;;;5039012;28;20332;-77
2022/01/14 12:10:51;;;;;;;209.07;107.45;;;5.50;66.70;;;;;;5041227;28;20104;-78
2022/01/14 12:13:26;;;;;;;203.23;102.90;;;5.30;65.80;;;;;;5040147;28;20025;-78
2022/01/14 12:16:03;;;;;;;208.68;107.18;;;5.70;65.50;;;;;;5038922;28;20033;-77
2022/01/14 12:18:57;;;;;;;205.98;104.97;;;5.60;63.90;;;;;;5039444;28;20030;-77
2022/01/14 12:21:40;;;;;;;205.48;107.20;;;5.50;65.10;;;;;;5040621;28;20037;-77
2022/01/14 12:24:17;;;;;;;206.93;110.00;;;5.60;65.40;;;;;;5040293;28;20244;-77
2022/01/14 12:27:11;;;;;;;221.68;115.20;;;5.60;66.20;;;;;;5038506;28;20079;-77
2022/01/14 12:29:44;;;;;;;212.57;107.88;;;5.70;65.60;;;;;;5040568;28;20071;-78
2022/01/14 12:32:20;;;;;;;223.85;116.13;;;5.70;67.00;;;;;;5040191;28;20017;-77
2022/01/14 12:34:54;;;;;;;160.95;80.63;;;6.00;65.40;;;;;;5040611;28;20147;-77
2022/01/14 12:37:29;;;;;;;207.80;106.65;;;6.00;63.90;;;;;;5040355;28;20163;-77
2022/01/14 12:40:03;;;;;;;207.15;109.47;;;6.00;63.80;;;;;;5039625;28;20407;-77
2022/01/14 12:42:29;;;;;;;197.20;102.05;;;5.90;63.90;;;;;;5040342;28;20032;-77
2022/01/14 12:44:56;;;;;;;198.68;102.53;;;5.90;64.80;;;;;;5039742;28;20033;-77
2022/01/14 12:47:30;;;;;;;198.48;103.55;;;5.80;65.50;;;;;;5040086;28;20694;-77
2022/01/14 12:50:04;;;;;;;201.10;105.60;;;5.90;64.40;;;;;;5038649;28;20082;-76
2022/01/14 12:52:38;;;;;;;181.73;94.75;;;6.00;65.00;;;;;;5039685;28;20048;-77
2022/01/14 12:55:08;;;;;;;183.40;97.75;;;6.00;65.00;;;;;;5039943;28;20028;-77
2022/01/14 12:57:35;;;;;;;205.40;102.55;;;6.00;64.30;;;;;;5039414;28;20499;-78
2022/01/14 13:00:03;;;;;;;203.95;105.85;;;6.10;65.40;;;;;;5038591;28;20297;-78
2022/01/14 13:02:30;;;;;;;174.10;92.70;;;6.10;66.50;;;;;;5039730;28;20303;-77
2022/01/14 13:05:14;;;;;;;174.68;89.88;;;6.00;66.10;;;;;;5038536;28;20687;-78